Latest Coastal Weather Observations for Wadeye (Port Keats)

IDD60701

Issued at 3:01 pm CST Saturday 23 September 2017 (issued every 10 minutes, with the page automatically refreshed every 10 minutes)

About coastal observations | Map of coastal stations | Coastal observations for NT | Marine services | Other Formats
Station Details ID: 014948 Name: PORT KEATS AIRPORT Lat: -14.25 Lon: 129.53 Height: 28.0 m
Data from the previous 72 hours. | See also: Recent months at Wadeye (Port Keats)
Date/Time
CST
Temp
°C
Wind Pressure Rain since
9am
mm
Weather Cloud Vis
km
Sea
Height
m
Swell
Dir  Spd
kts
Gust
kts
hPa Trend Height
m
Period
s
Dir
23/03:00pm 32.0 WNW 9 12 1010.3 - - - - - - - - -
23/02:30pm 32.7 NW 10 14 1010.4 - 0.0 - - - - - - -
23/02:00pm 32.2 W 8 13 1010.7 - 0.0 - - - - - - -
23/01:30pm 31.2 NW 9 15 1011.2 - 0.0 - - - - - - -
23/01:00pm 32.4 NW 9 13 1011.8 - 0.0 - - - - - - -
23/12:30pm 31.8 NNW 8 14 1012.2 - 0.0 - - - - - - -
23/12:00pm 32.5 NW 8 13 1012.6 - 0.0 - - - - - - -
23/11:30am 31.5 NW 6 10 1013.2 - 0.0 - - - - - - -
23/11:00am 30.6 WNW 6 10 1013.7 - 0.0 - - - - - - -
23/10:30am 30.5 NW 7 9 1014.1 - 0.0 - - - - - - -
23/10:00am 29.0 NW 5 10 1014.3 - 0.0 - - - - - - -
23/09:30am 28.9 NW 3 7 1014.4 - 0.0 - - - - - - -
23/09:00am 27.8 W 5 7 1014.4 - 0.0 - - - - - - -
23/08:30am 27.6 W 3 5 1014.1 - 0.0 - - - - - - -
23/08:00am 26.7 CALM 0 0 1013.8 - 0.0 - - - - - - -
23/07:30am 25.3 CALM 0 0 1013.4 - 0.0 - - - - - - -
23/07:00am 24.3 CALM 0 3 1013.1 - 0.0 - - - - - - -
23/06:30am 24.0 CALM 0 0 1012.8 - 0.0 - - - - - - -
23/06:00am 24.0 SE 2 3 1012.6 - 0.0 - - - - - - -
23/05:30am 24.6 CALM 0 0 1012.1 - 0.0 - - - - - - -
23/05:00am 24.5 CALM 0 0 1011.8 - 0.0 - - - - - - -
23/04:30am 24.1 CALM 0 0 1011.4 - 0.0 - - - - - - -
23/04:00am 24.8 NW 1 4 1011.2 - 0.0 - - - - - - -
23/03:30am 24.7 CALM 0 3 1011.2 - 0.0 - - - - - - -
23/03:00am 24.6 CALM 0 4 1011.3 - 0.0 - - - - - - -
23/02:30am 24.7 CALM 0 3 1011.5 - 0.0 - - - - - - -
23/02:00am 24.9 NW 1 3 1011.5 - 0.0 - - - - - - -
23/01:30am 25.2 NNW 2 4 1011.7 - 0.0 - - - - - - -
23/01:00am 25.4 NNW 1 3 1011.8 - 0.0 - - - - - - -
23/12:30am 25.4 NW 3 4 1011.9 - 0.0 - - - - - - -
23/12:00am 26.2 NNW 4 5 1012.1 - 0.0 - - - - - - -
 
Date/Time
CST
Temp
°C
Wind Pressure Rain since
9am
mm
Weather Cloud Vis
km
Sea
Height
m
Swell
Dir  Spd
kts
Gust
kts
hPa Trend Height
m
Period
s
Dir
22/11:30pm 25.6 NNW 3 4 1012.2 - 0.0 - - - - - - -
22/11:00pm 26.0 NNW 4 6 1012.2 - 0.0 - - - - - - -
22/10:30pm 26.3 N 4 5 1012.1 - 0.0 - - - - - - -
22/10:00pm 26.3 CALM 0 3 1012.1 - 0.0 - - - - - - -
22/09:30pm 26.3 NW 2 4 1012.0 - 0.0 - - - - - - -
22/09:00pm 26.5 WNW 1 3 1011.8 - 0.0 - - - - - - -
22/08:30pm 26.6 CALM 0 0 1011.4 - 0.0 - - - - - - -
22/08:00pm 27.0 WSW 3 4 1011.1 - 0.0 - - - - - - -
22/07:30pm 27.4 WSW 2 4 1011.0 - 0.0 - - - - - - -
22/07:00pm 27.9 WSW 3 5 1010.7 - 0.0 - - - - - - -
22/06:30pm 28.5 W 3 5 1010.4 - 0.0 - - - - - - -
22/06:00pm 28.8 W 7 11 1009.9 - 0.0 - - - - - - -
22/05:30pm 29.6 W 9 15 1009.3 - 0.0 - - - - - - -
22/05:00pm 29.9 WSW 5 7 1010.0 - 0.0 - - - - - - -
22/04:30pm 30.2 SW 5 8 1010.5 - 0.0 - - - - - - -
22/04:00pm 31.4 WSW 9 14 1010.0 - 0.0 - - - - - - -
22/03:30pm 31.2 WSW 9 16 1010.1 - 0.0 - - - - - - -
22/03:00pm 30.8 WSW 8 14 1010.3 - 0.0 - - - - - - -
22/02:30pm 30.5 WSW 9 14 1010.6 - 0.0 - - - - - - -
22/02:00pm 32.1 W 10 17 1010.9 - 0.0 - - - - - - -
22/01:30pm 30.7 W 8 14 1011.3 - 0.0 - - - - - - -
22/01:00pm 32.0 WNW 9 12 1011.8 - 0.0 - - - - - - -
22/12:30pm 31.6 NW 7 11 1012.3 - 0.0 - - - - - - -
22/12:00pm 31.3 W 7 11 1012.8 - 0.0 - - - - - - -
22/11:30am 31.5 NW 7 13 1013.2 - 0.0 - - - - - - -
22/11:00am 30.2 NW 6 12 1013.8 - 0.0 - - - - - - -
22/10:30am 29.5 NNW 5 7 1014.1 - 0.0 - - - - - - -
22/10:00am 29.0 WNW 6 8 1014.3 - 0.0 - - - - - - -
22/09:30am 28.6 NW 4 7 1014.3 - 0.0 - - - - - - -
22/09:00am 27.9 NW 2 5 1014.2 - 0.0 - - - - - - -
22/08:30am 27.6 CALM 0 0 1014.0 - 0.0 - - - - - - -
22/08:00am 26.5 E 1 3 1013.7 - 0.0 - - - - - - -
22/07:30am 25.0 ESE 3 4 1013.3 - 0.0 - - - - - - -
22/07:00am 24.2 ESE 3 4 1012.8 - 0.0 - - - - - - -
22/06:30am 24.1 E 3 6 1012.5 - 0.0 - - - - - - -
22/06:00am 23.8 CALM 0 0 1011.9 - 0.0 - - - - - - -
22/05:30am 22.8 CALM 0 0 1011.6 - 0.0 - - - - - - -
22/05:00am 22.7 S 1 5 1011.2 - 0.0 - - - - - - -
22/04:30am 21.8 CALM 0 0 1010.9 - 0.0 - - - - - - -
22/04:00am 22.5 CALM 0 0 1010.7 - 0.0 - - - - - - -
22/03:30am 23.2 ENE 1 4 1010.7 - 0.0 - - - - - - -
22/03:00am 23.4 NE 1 4 1010.5 - 0.0 - - - - - - -
22/02:30am 23.2 CALM 0 0 1010.5 - 0.0 - - - - - - -
22/02:00am 23.3 CALM 0 0 1010.7 - 0.0 - - - - - - -
22/01:30am 23.3 CALM 0 0 1010.9 - 0.0 - - - - - - -
22/01:00am 23.6 CALM 0 0 1010.9 - 0.0 - - - - - - -
22/12:30am 23.5 CALM 0 0 1010.9 - 0.0 - - - - - - -
22/12:00am 23.9 SSE 1 4 1011.2 - 0.0 - - - - - - -
 
Date/Time
CST
Temp
°C
Wind Pressure Rain since
9am
mm
Weather Cloud Vis
km
Sea
Height
m
Swell
Dir  Spd
kts
Gust
kts
hPa Trend Height
m
Period
s
Dir
21/11:30pm 23.8 CALM 0 0 1011.2 - 0.0 - - - - - - -
21/11:00pm 24.9 SSE 1 5 1011.2 - 0.0 - - - - - - -
21/10:30pm 25.0 N 1 4 1011.0 - 0.0 - - - - - - -
21/10:00pm 25.6 NNE 3 4 1010.8 - 0.0 - - - - - - -
21/09:30pm 26.0 NNW 3 5 1010.4 - 0.0 - - - - - - -
21/09:00pm 26.6 NNW 4 6 1010.3 - 0.0 - - - - - - -
21/08:30pm 26.3 WNW 1 4 1010.0 - 0.0 - - - - - - -
21/08:00pm 26.6 WNW 3 6 1009.7 - 0.0 - - - - - - -
21/07:30pm 27.0 W 3 5 1009.4 - 0.0 - - - - - - -
21/07:00pm 27.6 W 4 7 1009.3 - 0.0 - - - - - - -
21/06:30pm 28.1 W 5 7 1008.9 - 0.0 - - - - - - -
21/06:00pm 28.8 WNW 7 10 1008.8 - 0.0 - - - - - - -
21/05:30pm 29.6 NW 8 13 1008.7 - 0.0 - - - - - - -
21/05:00pm 30.5 W 7 11 1008.8 - 0.0 - - - - - - -
21/04:30pm 30.9 WNW 8 11 1008.8 - 0.0 - - - - - - -
21/04:00pm 30.2 WNW 7 11 1008.9 - 0.0 - - - - - - -
21/03:30pm 30.9 W 6 9 1009.5 - 0.0 - - - - - - -
21/03:00pm 31.3 WNW 8 11 1009.4 - 0.0 - - - - - - -
21/02:30pm 32.4 W 9 13 1009.9 - 0.0 - - - - - - -
21/02:00pm 31.7 NW 10 15 1010.1 - 0.0 - - - - - - -
21/01:30pm 32.5 NW 8 13 1010.7 - 0.0 - - - - - - -
21/01:00pm 32.0 NW 7 11 1011.3 - 0.0 - - - - - - -
21/12:30pm 31.6 NW 8 13 1011.9 - 0.0 - - - - - - -
21/12:00pm 31.2 N 9 12 1012.4 - 0.0 - - - - - - -
21/11:30am 30.6 NNW 9 12 1012.7 - 0.0 - - - - - - -
21/11:00am 30.8 N 9 11 1013.1 - 0.0 - - - - - - -
21/10:30am 30.7 N 6 10 1013.2 - 0.0 - - - - - - -
21/10:00am 29.5 N 4 9 1013.4 - 0.0 - - - - - - -
21/09:30am 28.2 N 4 6 1013.5 - 0.0 - - - - - - -
21/09:00am 27.4 N 5 8 1013.6 - 0.2 Recent precip. - - - - - -
21/08:30am 26.2 NNE 1 3 1013.5 - 0.2 - - - - - - -
21/08:00am 24.7 E 2 4 1013.3 - 0.0 - - - - - - -
21/07:30am 23.0 CALM 0 0 1013.0 - 0.0 - - - - - - -
21/07:00am 22.2 NE 1 4 1012.6 - 0.0 - - - - - - -
21/06:30am 22.0 CALM 0 0 1012.1 - 0.0 - - - - - - -
21/06:00am 21.9 ENE 1 3 1011.7 - 0.0 - - - - - - -
21/05:30am 21.0 CALM 0 0 1011.3 - 0.0 - - - - - - -
21/05:00am 21.4 CALM 0 0 1011.0 - 0.0 - - - - - - -
21/04:30am 22.3 ENE 1 3 1010.7 - 0.0 - - - - - - -
21/04:00am 22.6 NE 2 4 1010.6 - 0.0 - - - - - - -
21/03:30am 22.3 CALM 0 0 1010.4 - 0.0 - - - - - - -
21/03:00am 21.9 CALM 0 0 1010.5 - 0.0 - - - - - - -
21/02:30am 22.6 E 1 4 1010.8 - 0.0 - - - - - - -
21/02:00am 22.5 NE 6 11 1010.9 - 0.0 - - - - - - -
21/01:30am 22.8 CALM 0 0 1010.6 - 0.0 - - - - - - -
21/01:00am 22.6 SSE 2 5 1010.6 - 0.0 - - - - - - -
21/12:30am 22.0 CALM 0 0 1010.8 - 0.0 - - - - - - -
21/12:00am 22.8 CALM 0 4 1011.1 - 0.0 - - - - - - -
 
Date/Time
CST
Temp
°C
Wind Pressure Rain since
9am
mm
Weather Cloud Vis
km
Sea
Height
m
Swell
Dir  Spd
kts
Gust
kts
hPa Trend Height
m
Period
s
Dir
20/11:30pm 23.1 CALM 0 0 1011.1 - 0.0 - - - - - - -
20/11:00pm 23.9 CALM 0 0 1011.3 - 0.0 - - - - - - -
20/10:30pm 24.4 NE 1 3 1011.3 - 0.0 - - - - - - -
20/10:00pm 24.7 CALM 0 4 1011.2 - 0.0 - - - - - - -
20/09:30pm 25.0 CALM 0 0 1011.0 - 0.0 - - - - - - -
20/09:00pm 25.2 CALM 0 0 1010.8 - 0.0 - - - - - - -
20/08:30pm 25.6 SW 1 4 1010.6 - 0.0 - - - - - - -
20/08:00pm 26.1 WSW 2 5 1010.5 - 0.0 - - - - - - -
20/07:30pm 26.5 W 3 4 1010.2 - 0.0 - - - - - - -
20/07:00pm 27.1 WSW 4 5 1010.0 - 0.0 - - - - - - -
20/06:30pm 28.1 W 6 9 1009.9 - 0.0 - - - - - - -
20/06:00pm 29.2 W 6 9 1009.7 - 0.0 - - - - - - -
20/05:30pm 29.7 W 7 11 1009.5 - 0.0 - - - - - - -
20/05:00pm 30.6 WSW 8 12 1009.5 - 0.0 - - - - - - -
20/04:30pm 30.7 WSW 8 13 1009.6 - 0.0 - - - - - - -
20/04:00pm 31.1 WSW 9 13 1009.8 - 0.0 - - - - - - -
20/03:30pm 31.8 W 9 13 1010.1 - 0.0 - - - - - - -

Other Formats:

Comma delimited format used in spreadsheet applications
http://www.bom.gov.au/fwo/IDD60701/IDD60701.95111.axf

JavaScript Object Notation format (JSON) in row-major order
http://www.bom.gov.au/fwo/IDD60701/IDD60701.95111.json